Time;durP1;ratioP1;P1;durP2;ratioP2;P2;SDS_P1;SDS_P2;PMS_P1;PMS_P2;Temp;Humidity;BMP_temperature;BMP_pressure;BME280_temperature;BME280_humidity;BME280_pressure;Samples;Min_cycle;Max_cycle;Signal;HPM_P1;HPM_P2
2024/01/30 00:01:24;;;;;;;30.87;18.20;;;1.10;99.90;;;;;;10380773;28;20228;-86
2024/01/30 00:06:26;;;;;;;41.13;24.33;;;1.00;99.90;;;;;;10437191;28;20349;-86
2024/01/30 00:11:29;;;;;;;43.47;26.20;;;0.90;99.90;;;;;;10453888;28;20219;-86
2024/01/30 00:16:32;;;;;;;36.93;24.23;;;0.70;99.90;;;;;;10412974;28;20210;-86
2024/01/30 00:21:34;;;;;;;51.70;26.10;;;0.60;99.90;;;;;;10395288;28;20227;-87
2024/01/30 00:26:37;;;;;;;50.53;27.40;;;0.60;99.90;;;;;;10410525;28;20596;-86
2024/01/30 00:31:39;;;;;;;51.50;29.20;;;0.40;99.90;;;;;;10412579;28;20351;-86
2024/01/30 00:36:43;;;;;;;64.00;31.50;;;0.10;99.90;;;;;;10412427;28;20197;-86
2024/01/30 00:41:46;;;;;;;57.23;28.47;;;0.40;99.90;;;;;;10414462;28;20223;-86
2024/01/30 00:46:48;;;;;;;48.73;26.83;;;0.40;99.90;;;;;;10412172;28;20192;-86
2024/01/30 00:51:51;;;;;;;48.47;26.57;;;0.50;99.90;;;;;;10411566;28;20212;-86
2024/01/30 00:56:54;;;;;;;35.20;19.53;;;0.30;99.90;;;;;;10394262;28;20201;-85
2024/01/30 01:01:56;;;;;;;40.77;23.77;;;0.60;99.90;;;;;;10393627;28;20226;-86
2024/01/30 01:06:59;;;;;;;29.83;17.23;;;0.70;99.90;;;;;;10393784;28;20231;-85
2024/01/30 01:12:02;;;;;;;33.10;18.97;;;0.50;99.90;;;;;;10402310;28;20243;-85
2024/01/30 01:17:05;;;;;;;43.10;24.90;;;0.70;99.90;;;;;;10447980;28;20240;-85
2024/01/30 01:22:08;;;;;;;54.53;26.90;;;0.60;99.90;;;;;;10447390;28;20262;-85
2024/01/30 01:27:11;;;;;;;44.17;24.90;;;0.50;99.90;;;;;;10442931;28;20767;-85
2024/01/30 01:32:13;;;;;;;43.93;24.73;;;0.40;99.90;;;;;;10429809;28;20310;-85
2024/01/30 01:37:16;;;;;;;49.27;24.60;;;0.10;99.90;;;;;;10449804;28;20234;-85
2024/01/30 01:42:19;;;;;;;42.23;24.57;;;0.00;99.90;;;;;;10424316;28;20326;-84
2024/01/30 01:47:21;;;;;;;46.47;25.43;;;-0.20;99.90;;;;;;10414439;28;20231;-85
2024/01/30 01:52:24;;;;;;;46.33;27.10;;;0.00;99.90;;;;;;10414383;28;20235;-85
2024/01/30 01:57:26;;;;;;;29.30;18.17;;;0.00;99.90;;;;;;10441436;28;20706;-85
2024/01/30 02:02:34;;;;;;;45.57;23.87;;;0.10;99.90;;;;;;10454921;28;20697;-84
2024/01/30 02:07:37;;;;;;;41.97;24.10;;;0.20;99.90;;;;;;10451308;28;20236;-84
2024/01/30 02:12:40;;;;;;;45.97;25.27;;;0.40;99.90;;;;;;10412757;28;20268;-84
2024/01/30 02:17:43;;;;;;;39.87;23.00;;;0.40;99.90;;;;;;10411733;28;20679;-84
2024/01/30 02:22:46;;;;;;;43.57;24.30;;;0.30;99.90;;;;;;10422633;28;20250;-84
2024/01/30 02:27:49;;;;;;;47.13;24.33;;;0.30;99.90;;;;;;10435232;28;20336;-84
2024/01/30 02:32:51;;;;;;;35.20;21.70;;;0.30;99.90;;;;;;10453123;28;20239;-84
2024/01/30 02:37:54;;;;;;;44.27;24.07;;;0.40;99.90;;;;;;10452757;28;20271;-84
2024/01/30 02:42:59;;;;;;;41.37;24.33;;;0.20;99.90;;;;;;10452910;28;20266;-84
2024/01/30 02:48:01;;;;;;;40.27;21.57;;;-0.10;99.90;;;;;;10449688;28;20252;-84
2024/01/30 02:53:04;;;;;;;41.60;21.80;;;-0.30;99.90;;;;;;10435111;28;20228;-84
2024/01/30 02:58:06;;;;;;;31.80;17.37;;;-0.40;99.90;;;;;;10411207;28;20236;-84
2024/01/30 03:03:09;;;;;;;40.10;23.53;;;0.20;99.90;;;;;;10425121;28;20252;-85
2024/01/30 03:08:12;;;;;;;45.40;23.87;;;0.40;99.90;;;;;;10411725;28;20752;-84
2024/01/30 03:13:14;;;;;;;37.00;22.20;;;0.30;99.90;;;;;;10370128;28;20236;-85
2024/01/30 03:18:17;;;;;;;41.67;21.67;;;0.10;99.90;;;;;;10369593;28;20302;-85
2024/01/30 03:23:20;;;;;;;41.27;22.97;;;-0.10;99.90;;;;;;10369035;28;20314;-85
2024/01/30 03:28:22;;;;;;;38.17;23.10;;;-0.10;99.90;;;;;;10413754;28;20239;-85
2024/01/30 03:33:25;;;;;;;42.43;22.20;;;-0.10;99.90;;;;;;10393033;28;20287;-84
2024/01/30 03:38:27;;;;;;;36.43;20.73;;;-0.30;99.90;;;;;;10409480;28;20274;-84
2024/01/30 03:43:30;;;;;;;37.73;22.07;;;-0.20;99.90;;;;;;10410366;28;20252;-85
2024/01/30 03:48:33;;;;;;;40.33;21.93;;;-0.10;99.90;;;;;;10391514;28;20223;-85
2024/01/30 03:53:36;;;;;;;35.87;21.07;;;-0.20;99.90;;;;;;10409678;28;20236;-85
2024/01/30 03:58:38;;;;;;;29.83;17.67;;;-0.20;99.90;;;;;;10412085;28;20257;-85
2024/01/30 04:03:41;;;;;;;32.53;18.47;;;0.10;99.90;;;;;;10435823;28;20258;-85
2024/01/30 04:08:44;;;;;;;32.57;20.60;;;0.30;99.90;;;;;;10354570;28;20227;-85
2024/01/30 04:13:48;;;;;;;29.60;16.70;;;0.20;99.90;;;;;;10368253;28;20290;-85
2024/01/30 04:18:52;;;;;;;37.23;21.23;;;0.40;99.90;;;;;;10375768;28;20235;-85
2024/01/30 04:23:55;;;;;;;33.37;20.60;;;0.30;99.90;;;;;;10423543;28;20262;-85
2024/01/30 04:28:57;;;;;;;26.77;18.30;;;0.00;99.90;;;;;;10408748;28;20227;-85
2024/01/30 04:33:59;;;;;;;33.93;19.63;;;0.20;99.90;;;;;;10409007;28;20231;-85
2024/01/30 04:39:03;;;;;;;38.97;21.40;;;0.50;99.90;;;;;;10408528;28;20302;-85
2024/01/30 04:44:06;;;;;;;35.17;20.40;;;0.50;99.90;;;;;;10413234;28;20700;-85
2024/01/30 04:49:09;;;;;;;32.77;18.57;;;0.70;99.90;;;;;;10407961;28;20231;-85
2024/01/30 04:54:11;;;;;;;25.37;17.23;;;0.80;99.90;;;;;;10407766;28;20285;-85
2024/01/30 04:59:14;;;;;;;34.13;19.47;;;1.00;99.90;;;;;;10407740;28;20243;-85
2024/01/30 05:04:16;;;;;;;32.17;18.03;;;0.80;99.90;;;;;;10433346;28;20247;-85
2024/01/30 05:09:19;;;;;;;31.90;17.87;;;0.80;99.90;;;;;;10407097;28;20610;-85
2024/01/30 05:14:22;;;;;;;38.43;21.20;;;1.00;99.90;;;;;;10395738;28;20233;-85
2024/01/30 05:19:24;;;;;;;36.03;20.40;;;1.20;99.90;;;;;;10416059;28;20223;-86
2024/01/30 05:24:27;;;;;;;52.60;30.93;;;1.20;99.90;;;;;;10424073;28;20262;-85
2024/01/30 05:29:29;;;;;;;29.10;15.93;;;0.90;99.90;;;;;;10418591;28;20887;-84
2024/01/30 05:34:32;;;;;;;40.83;24.63;;;1.30;99.90;;;;;;10415415;28;20674;-85
2024/01/30 05:39:36;;;;;;;34.70;21.47;;;1.20;99.90;;;;;;10415151;28;20240;-85
2024/01/30 05:44:38;;;;;;;46.73;23.63;;;0.80;99.90;;;;;;10414980;28;20247;-86
2024/01/30 05:49:41;;;;;;;44.67;24.07;;;0.60;99.90;;;;;;10414176;28;20274;-85
2024/01/30 05:54:44;;;;;;;44.23;23.87;;;0.70;99.90;;;;;;10414243;28;20247;-86
2024/01/30 05:59:47;;;;;;;36.47;20.87;;;0.60;99.90;;;;;;10414432;28;20235;-86
2024/01/30 06:04:50;;;;;;;28.27;16.27;;;0.80;99.90;;;;;;10432935;28;20251;-86
2024/01/30 06:09:53;;;;;;;28.83;18.77;;;0.60;99.90;;;;;;10412318;28;20244;-86
2024/01/30 06:14:56;;;;;;;45.50;24.93;;;0.90;99.90;;;;;;10395936;28;20304;-86
2024/01/30 06:19:59;;;;;;;61.67;31.23;;;0.60;99.90;;;;;;10413710;28;20234;-86
2024/01/30 06:25:02;;;;;;;54.93;28.00;;;0.50;99.90;;;;;;10411372;28;20403;-86
2024/01/30 06:30:05;;;;;;;41.90;24.27;;;0.60;99.90;;;;;;10412946;28;20227;-86
2024/01/30 06:35:10;;;;;;;36.07;22.00;;;0.60;99.90;;;;;;10412657;28;20228;-86
2024/01/30 06:40:13;;;;;;;34.40;20.67;;;0.50;99.90;;;;;;10412317;28;20246;-86
2024/01/30 06:45:15;;;;;;;31.57;18.70;;;0.60;99.90;;;;;;10428718;28;20251;-86
2024/01/30 06:50:18;;;;;;;29.40;18.97;;;0.80;99.90;;;;;;10411634;28;20240;-86
2024/01/30 06:55:20;;;;;;;23.10;15.27;;;0.90;99.90;;;;;;10412268;28;20235;-86
2024/01/30 07:00:23;;;;;;;27.97;18.43;;;1.20;99.90;;;;;;10408439;28;20234;-85
2024/01/30 07:05:26;;;;;;;26.80;15.57;;;1.50;99.90;;;;;;10411631;28;20263;-85
2024/01/30 07:10:28;;;;;;;36.80;20.50;;;1.70;99.90;;;;;;10415873;28;20265;-85
2024/01/30 07:15:31;;;;;;;27.37;18.03;;;1.40;99.90;;;;;;10412690;28;20267;-84
2024/01/30 07:20:35;;;;;;;31.17;18.37;;;1.30;99.90;;;;;;10411004;28;20663;-84
2024/01/30 07:25:41;;;;;;;26.87;16.73;;;1.20;99.90;;;;;;10430157;28;20313;-84
2024/01/30 07:30:44;;;;;;;31.10;17.80;;;1.60;99.90;;;;;;10409058;28;20787;-84
2024/01/30 07:35:46;;;;;;;35.97;18.97;;;1.70;99.90;;;;;;10450543;28;20210;-83
2024/01/30 07:40:49;;;;;;;38.20;23.17;;;2.10;99.90;;;;;;10399572;28;20677;-83
2024/01/30 07:45:52;;;;;;;35.37;19.83;;;1.90;99.90;;;;;;10411750;28;20255;-84
2024/01/30 07:50:54;;;;;;;34.07;18.33;;;3.80;99.90;;;;;;10409962;28;20256;-84
2024/01/30 07:55:57;;;;;;;36.30;20.03;;;4.30;99.90;;;;;;10406508;28;20948;-82
2024/01/30 08:01:00;;;;;;;35.60;16.80;;;3.80;99.90;;;;;;10408102;28;20237;-82
2024/01/30 08:06:03;;;;;;;27.60;16.77;;;5.00;99.90;;;;;;10406683;28;20728;-82
2024/01/30 08:11:07;;;;;;;36.77;16.77;;;5.00;99.90;;;;;;10408283;28;20263;-83
2024/01/30 08:16:10;;;;;;;25.60;16.03;;;4.30;99.90;;;;;;10394530;28;20262;-82
2024/01/30 08:21:16;;;;;;;35.40;19.27;;;4.20;99.90;;;;;;10422414;28;20237;-82
2024/01/30 08:26:19;;;;;;;28.13;16.40;;;4.30;99.90;;;;;;10411287;28;20267;-82
2024/01/30 08:31:21;;;;;;;24.67;15.77;;;4.50;99.90;;;;;;10436430;28;20248;-82
2024/01/30 08:36:25;;;;;;;27.03;15.97;;;4.60;99.90;;;;;;10418964;28;20264;-82
2024/01/30 08:41:27;;;;;;;30.60;18.40;;;5.00;99.90;;;;;;10390058;28;20239;-82
2024/01/30 08:46:30;;;;;;;29.97;18.63;;;5.00;99.90;;;;;;10426475;28;20253;-82
2024/01/30 08:51:33;;;;;;;36.77;16.47;;;5.10;99.90;;;;;;10448155;28;20307;-82
2024/01/30 08:56:36;;;;;;;38.20;20.03;;;5.20;99.90;;;;;;10440820;28;20243;-82
2024/01/30 09:01:38;;;;;;;30.20;18.90;;;5.30;99.90;;;;;;10432343;28;20227;-82
2024/01/30 09:06:45;;;;;;;27.23;16.60;;;5.10;99.90;;;;;;10429092;28;20288;-82
2024/01/30 09:11:48;;;;;;;28.73;18.13;;;5.30;99.90;;;;;;10432678;28;20627;-82
2024/01/30 09:16:51;;;;;;;29.73;18.13;;;5.50;99.90;;;;;;10383357;28;20286;-83
2024/01/30 09:21:53;;;;;;;32.27;19.93;;;5.70;99.90;;;;;;10406637;28;20235;-82
2024/01/30 09:26:56;;;;;;;33.60;19.57;;;5.60;99.90;;;;;;10416990;28;20270;-83
2024/01/30 09:31:58;;;;;;;38.87;21.07;;;5.40;99.90;;;;;;10388187;28;20290;-83
2024/01/30 09:37:02;;;;;;;35.77;20.33;;;5.70;99.90;;;;;;10422875;28;20234;-83
2024/01/30 09:42:10;;;;;;;34.07;21.43;;;5.60;99.90;;;;;;10446439;28;20240;-83
2024/01/30 09:47:14;;;;;;;28.90;17.70;;;5.80;99.90;;;;;;10406820;28;20231;-83
2024/01/30 09:52:18;;;;;;;26.60;17.07;;;5.80;99.90;;;;;;10404912;28;20232;-83
2024/01/30 09:57:21;;;;;;;27.00;15.43;;;5.80;99.90;;;;;;10438295;28;20231;-83
2024/01/30 10:02:23;;;;;;;28.07;17.57;;;5.90;99.90;;;;;;10438746;28;20235;-83
2024/01/30 10:07:26;;;;;;;30.67;17.47;;;6.00;99.90;;;;;;10438102;28;20279;-84
2024/01/30 10:12:30;;;;;;;37.97;20.10;;;6.10;99.90;;;;;;10395245;28;20232;-84
2024/01/30 10:17:33;;;;;;;33.57;23.37;;;6.20;99.90;;;;;;10394491;28;20228;-84
2024/01/30 10:22:36;;;;;;;42.47;24.70;;;5.80;99.90;;;;;;10413728;28;20251;-84
2024/01/30 10:27:39;;;;;;;39.10;25.03;;;5.30;99.90;;;;;;10401581;28;20318;-83
2024/01/30 10:32:42;;;;;;;31.70;22.87;;;5.00;99.90;;;;;;10412565;28;20290;-84
2024/01/30 10:37:47;;;;;;;37.97;23.87;;;4.90;99.90;;;;;;10412570;28;20231;-84
2024/01/30 10:42:55;;;;;;;36.70;25.10;;;5.00;99.90;;;;;;10412077;28;20248;-84
2024/01/30 10:47:59;;;;;;;42.87;25.10;;;5.10;99.90;;;;;;10413311;28;20231;-83
2024/01/30 10:53:04;;;;;;;41.63;23.97;;;5.20;99.90;;;;;;10413551;28;20647;-84
2024/01/30 10:58:08;;;;;;;65.03;32.40;;;5.50;99.90;;;;;;10423550;28;20227;-85
2024/01/30 11:03:11;;;;;;;47.30;25.23;;;5.80;99.90;;;;;;10424761;28;20741;-85
2024/01/30 11:08:14;;;;;;;22.73;15.20;;;6.90;99.90;;;;;;10411413;28;20651;-84
2024/01/30 11:13:19;;;;;;;28.23;15.70;;;7.20;99.90;;;;;;10409693;28;20290;-84
2024/01/30 11:18:26;;;;;;;24.00;14.60;;;7.50;99.90;;;;;;10411148;28;20295;-84
2024/01/30 11:23:28;;;;;;;24.07;13.67;;;7.80;99.90;;;;;;10393579;28;20266;-84
2024/01/30 11:28:34;;;;;;;22.27;14.13;;;7.70;99.90;;;;;;10410162;28;20233;-84
2024/01/30 11:33:37;;;;;;;23.30;15.33;;;7.60;99.90;;;;;;10410439;28;20287;-84
2024/01/30 11:38:43;;;;;;;27.30;16.03;;;7.80;99.90;;;;;;10409715;28;20684;-84
2024/01/30 11:43:53;;;;;;;26.67;16.03;;;8.00;99.90;;;;;;10389019;28;20708;-84
2024/01/30 11:48:56;;;;;;;23.70;14.30;;;8.10;99.90;;;;;;10390885;28;20262;-84
2024/01/30 11:53:58;;;;;;;24.90;14.63;;;8.00;99.90;;;;;;10409350;28;20672;-84
2024/01/30 11:59:01;;;;;;;34.00;19.17;;;8.10;99.90;;;;;;10408383;28;20702;-84
2024/01/30 12:04:08;;;;;;;21.90;13.87;;;8.40;99.90;;;;;;10409104;28;20315;-84
2024/01/30 12:09:13;;;;;;;20.47;13.13;;;8.60;99.90;;;;;;10408756;28;20247;-84
2024/01/30 12:14:16;;;;;;;21.30;13.13;;;8.40;99.90;;;;;;10408266;28;20238;-84
2024/01/30 12:19:23;;;;;;;28.47;16.33;;;8.30;99.90;;;;;;10408291;28;20250;-84
2024/01/30 12:24:27;;;;;;;23.80;13.23;;;8.30;99.90;;;;;;10408165;28;20265;-84
2024/01/30 12:29:32;;;;;;;21.77;13.73;;;8.30;99.90;;;;;;10373771;28;20301;-84
2024/01/30 12:34:41;;;;;;;27.37;14.70;;;8.10;99.90;;;;;;10432665;28;20772;-83
2024/01/30 12:39:59;;;;;;;22.00;14.30;;;8.30;99.90;;;;;;10420895;28;20230;-84
2024/01/30 12:45:05;;;;;;;65.90;35.20;;;8.60;99.90;;;;;;10422164;28;20251;-84
2024/01/30 12:50:08;;;;;;;31.67;19.03;;;9.10;99.90;;;;;;10393153;28;20265;-84
2024/01/30 12:55:10;;;;;;;46.70;24.47;;;9.30;99.90;;;;;;10389970;28;20266;-84
2024/01/30 13:00:13;;;;;;;27.90;18.83;;;9.30;99.90;;;;;;10427736;28;20234;-84
2024/01/30 13:05:15;;;;;;;26.80;17.57;;;9.30;99.90;;;;;;10396893;28;20307;-84
2024/01/30 13:10:18;;;;;;;37.33;22.47;;;9.10;99.90;;;;;;10368497;28;20687;-84
2024/01/30 13:15:22;;;;;;;30.50;17.97;;;9.00;99.90;;;;;;10377131;28;20227;-84
2024/01/30 13:20:25;;;;;;;28.30;18.93;;;9.00;99.90;;;;;;10388401;28;20274;-84
2024/01/30 13:25:27;;;;;;;32.63;21.13;;;8.90;99.90;;;;;;10405361;28;20267;-83
2024/01/30 13:30:30;;;;;;;40.13;21.93;;;8.90;99.90;;;;;;10407121;28;20281;-84
2024/01/30 13:35:32;;;;;;;36.27;19.37;;;8.80;99.90;;;;;;10408232;28;20242;-83
2024/01/30 13:40:35;;;;;;;27.77;19.07;;;8.80;99.90;;;;;;10445882;28;20231;-83
2024/01/30 13:45:38;;;;;;;35.67;21.60;;;8.70;99.90;;;;;;10433929;28;20310;-84
2024/01/30 13:50:40;;;;;;;34.70;21.03;;;8.70;99.90;;;;;;10415545;28;20266;-84
2024/01/30 13:55:43;;;;;;;34.07;19.83;;;8.80;99.90;;;;;;10447238;28;20632;-84
2024/01/30 14:00:45;;;;;;;30.53;18.27;;;8.80;99.90;;;;;;10434178;28;20292;-84
2024/01/30 14:05:48;;;;;;;32.70;21.17;;;8.80;99.90;;;;;;10396118;28;20259;-83
2024/01/30 14:10:51;;;;;;;31.00;19.20;;;8.70;99.90;;;;;;10413770;28;20235;-83
2024/01/30 14:15:53;;;;;;;30.60;18.03;;;8.50;99.90;;;;;;10408718;28;20238;-83
2024/01/30 14:20:56;;;;;;;27.10;18.17;;;8.30;99.90;;;;;;10453203;28;20230;-83
2024/01/30 14:25:59;;;;;;;37.63;19.47;;;8.00;99.90;;;;;;10432787;28;20259;-83
2024/01/30 14:31:01;;;;;;;38.93;19.80;;;7.70;99.90;;;;;;10411694;28;20599;-83
2024/01/30 14:36:04;;;;;;;29.00;18.33;;;7.50;99.90;;;;;;10378012;28;20273;-83
2024/01/30 14:41:07;;;;;;;34.97;20.93;;;7.30;99.90;;;;;;10392834;28;20289;-83
2024/01/30 14:46:09;;;;;;;38.57;20.90;;;7.20;99.90;;;;;;10409617;28;20622;-83
2024/01/30 14:51:13;;;;;;;31.27;19.90;;;7.10;99.90;;;;;;10410883;28;20686;-83
2024/01/30 14:56:17;;;;;;;30.03;18.93;;;6.90;99.90;;;;;;10414894;28;20590;-83
2024/01/30 15:01:20;;;;;;;31.07;19.03;;;6.80;99.90;;;;;;10451897;28;20236;-83
2024/01/30 15:06:24;;;;;;;29.90;18.03;;;6.60;99.90;;;;;;10451692;28;20262;-83
2024/01/30 15:11:26;;;;;;;37.37;19.27;;;6.40;99.90;;;;;;10444373;28;20230;-83
2024/01/30 15:16:28;;;;;;;38.53;20.83;;;6.20;99.90;;;;;;10411813;28;20259;-83
2024/01/30 15:21:31;;;;;;;39.70;21.90;;;6.20;99.90;;;;;;10450814;28;20260;-83
2024/01/30 15:26:34;;;;;;;37.13;23.27;;;6.00;99.90;;;;;;10422470;28;20265;-83
2024/01/30 15:31:36;;;;;;;38.80;23.47;;;5.90;99.90;;;;;;10428781;28;20241;-83
2024/01/30 15:36:39;;;;;;;37.37;24.43;;;6.10;99.90;;;;;;10438266;28;20691;-82
2024/01/30 15:41:42;;;;;;;31.47;19.60;;;;;;;;;;10423817;28;20257;-84
2024/01/30 15:46:44;;;;;;;41.17;23.17;;;5.30;99.90;;;;;;10409572;28;20320;-83
2024/01/30 15:51:47;;;;;;;38.33;23.57;;;5.20;99.90;;;;;;10408153;28;20257;-84
2024/01/30 15:56:50;;;;;;;37.20;23.20;;;4.70;99.90;;;;;;10380720;28;20277;-83
2024/01/30 16:01:52;;;;;;;42.20;22.37;;;4.90;99.90;;;;;;10409543;28;20232;-83
2024/01/30 16:06:55;;;;;;;46.57;24.30;;;4.70;99.90;;;;;;10406337;28;20277;-84
2024/01/30 16:11:58;;;;;;;40.87;24.17;;;4.60;99.90;;;;;;10424019;28;20246;-84
2024/01/30 16:17:01;;;;;;;37.43;22.57;;;4.60;99.90;;;;;;10407913;28;20230;-83
2024/01/30 16:22:04;;;;;;;47.50;29.33;;;4.60;99.90;;;;;;10409118;28;20282;-83
2024/01/30 16:27:06;;;;;;;222.70;92.67;;;4.20;99.90;;;;;;10411103;28;20266;-83
2024/01/30 16:32:09;;;;;;;83.63;45.63;;;4.30;99.90;;;;;;10449101;28;20630;-83
2024/01/30 16:37:11;;;;;;;41.63;25.73;;;5.70;99.90;;;;;;10449097;28;20286;-83
2024/01/30 16:42:14;;;;;;;51.57;28.87;;;5.50;99.90;;;;;;10447687;28;20244;-83
2024/01/30 16:47:17;;;;;;;338.30;165.83;;;5.00;99.90;;;;;;10448050;28;20715;-83
2024/01/30 16:52:20;;;;;;;63.80;40.87;;;4.80;99.90;;;;;;10447785;28;20245;-83
2024/01/30 16:57:22;;;;;;;44.97;29.83;;;4.50;99.90;;;;;;10430779;28;20267;-83
2024/01/30 17:02:26;;;;;;;36.33;24.37;;;4.60;99.90;;;;;;10429721;28;20699;-83
2024/01/30 17:07:33;;;;;;;44.73;25.40;;;4.50;99.90;;;;;;10447324;28;20258;-83
2024/01/30 17:12:36;;;;;;;56.43;35.53;;;4.50;99.90;;;;;;10431741;28;20300;-83
2024/01/30 17:17:39;;;;;;;49.80;31.27;;;4.40;99.90;;;;;;10406177;28;20312;-83
2024/01/30 17:22:41;;;;;;;46.83;28.67;;;4.40;99.90;;;;;;10405834;28;20654;-83
2024/01/30 17:27:48;;;;;;;53.17;32.87;;;4.40;99.90;;;;;;10405941;28;20320;-83
2024/01/30 17:32:51;;;;;;;43.23;26.23;;;4.40;99.90;;;;;;10388932;28;20228;-83
2024/01/30 17:37:54;;;;;;;46.60;25.90;;;4.60;99.90;;;;;;10406421;28;20272;-83
2024/01/30 17:42:56;;;;;;;58.87;30.00;;;4.30;99.90;;;;;;10404717;28;20219;-79
2024/01/30 17:48:00;;;;;;;212.90;103.10;;;4.30;99.90;;;;;;10410682;28;20252;-80
2024/01/30 17:53:04;;;;;;;66.53;35.33;;;5.70;99.90;;;;;;10446759;28;20685;-80
2024/01/30 17:58:06;;;;;;;50.73;35.83;;;5.80;99.90;;;;;;10413861;28;20238;-80
2024/01/30 18:03:09;;;;;;;59.07;39.60;;;5.00;99.90;;;;;;10416163;28;20227;-81
2024/01/30 18:08:11;;;;;;;68.10;44.13;;;3.70;99.90;;;;;;10435289;28;20310;-80
2024/01/30 18:13:16;;;;;;;66.33;43.37;;;3.50;99.90;;;;;;10395404;28;20227;-80
2024/01/30 18:18:19;;;;;;;69.80;43.10;;;3.00;99.90;;;;;;10393498;28;20688;-80
2024/01/30 18:23:21;;;;;;;68.23;43.83;;;2.70;99.90;;;;;;10414257;28;20658;-80
2024/01/30 18:28:24;;;;;;;87.63;50.53;;;2.50;99.90;;;;;;10419537;28;20246;-80
2024/01/30 18:33:27;;;;;;;102.97;58.77;;;2.60;99.90;;;;;;10434966;28;20235;-81
2024/01/30 18:38:30;;;;;;;99.00;56.30;;;2.60;99.90;;;;;;10396108;28;20317;-80
2024/01/30 18:43:34;;;;;;;132.70;68.13;;;2.60;99.90;;;;;;10416529;28;20231;-81
2024/01/30 18:48:37;;;;;;;113.87;62.20;;;2.50;99.90;;;;;;10451887;28;20485;-80
2024/01/30 18:53:40;;;;;;;157.47;82.07;;;2.20;99.90;;;;;;10452285;28;20668;-80
2024/01/30 18:58:42;;;;;;;616.23;355.83;;;2.20;99.90;;;;;;10422994;28;20331;-81
2024/01/30 19:03:46;;;;;;;577.73;330.47;;;2.60;99.90;;;;;;10405415;28;20289;-80
2024/01/30 19:08:49;;;;;;;513.93;291.50;;;3.10;99.90;;;;;;10410316;28;20317;-81
2024/01/30 19:13:52;;;;;;;272.07;143.73;;;3.30;99.90;;;;;;10408870;28;20227;-82
2024/01/30 19:18:58;;;;;;;167.67;94.57;;;3.40;99.90;;;;;;10411729;28;20677;-81
2024/01/30 19:24:00;;;;;;;182.03;94.40;;;3.50;99.90;;;;;;10436718;28;20263;-80
2024/01/30 19:29:03;;;;;;;161.60;87.60;;;3.50;99.90;;;;;;10408978;28;20256;-80
2024/01/30 19:34:05;;;;;;;286.50;159.83;;;3.40;99.90;;;;;;10413188;28;20298;-81
2024/01/30 19:39:13;;;;;;;199.07;107.93;;;3.50;99.90;;;;;;10409878;28;20292;-80
2024/01/30 19:44:15;;;;;;;174.37;95.27;;;3.80;99.90;;;;;;10391960;28;20268;-81
2024/01/30 19:49:20;;;;;;;149.00;78.67;;;4.00;99.90;;;;;;10410510;28;20246;-81
2024/01/30 19:54:27;;;;;;;154.07;80.27;;;3.70;99.90;;;;;;10407953;28;20686;-81
2024/01/30 19:59:36;;;;;;;299.57;170.47;;;3.60;99.90;;;;;;10407508;28;20268;-80
2024/01/30 20:04:38;;;;;;;194.83;103.00;;;3.90;99.90;;;;;;10406471;28;20232;-80
2024/01/30 20:09:41;;;;;;;142.17;78.03;;;4.00;99.90;;;;;;10439787;28;20229;-81
2024/01/30 20:14:44;;;;;;;137.63;73.53;;;3.80;99.90;;;;;;10442823;28;20263;-81
2024/01/30 20:19:47;;;;;;;174.00;95.80;;;4.10;99.90;;;;;;10437204;28;20230;-81
2024/01/30 20:24:52;;;;;;;128.77;70.80;;;4.20;99.90;;;;;;10386464;28;20346;-81
2024/01/30 20:30:10;;;;;;;452.73;251.53;;;4.20;99.90;;;;;;10406589;28;20289;-80
2024/01/30 20:35:12;;;;;;;105.27;57.63;;;5.10;99.90;;;;;;10415435;28;20238;-80
2024/01/30 20:40:16;;;;;;;105.30;54.80;;;6.90;99.90;;;;;;10431022;28;20254;-81
2024/01/30 20:45:20;;;;;;;77.27;42.63;;;7.00;99.90;;;;;;10402322;28;20258;-81
2024/01/30 20:50:22;;;;;;;61.83;36.43;;;6.80;99.90;;;;;;10414564;28;20232;-81
2024/01/30 20:55:25;;;;;;;83.67;47.37;;;6.30;99.90;;;;;;10378673;28;20231;-81
2024/01/30 21:00:27;;;;;;;81.63;43.97;;;6.00;99.90;;;;;;10388802;28;20702;-82
2024/01/30 21:05:30;;;;;;;92.10;47.97;;;6.00;99.90;;;;;;10388635;28;20258;-80
2024/01/30 21:10:32;;;;;;;72.87;41.63;;;5.70;99.90;;;;;;10405209;28;20297;-81
2024/01/30 21:15:35;;;;;;;70.27;44.00;;;6.10;99.90;;;;;;10388538;28;20226;-80
2024/01/30 21:20:37;;;;;;;67.43;39.43;;;6.20;99.90;;;;;;10416782;28;20239;-81
2024/01/30 21:25:40;;;;;;;72.60;39.50;;;5.90;99.90;;;;;;10424987;28;20254;-81
2024/01/30 21:30:42;;;;;;;71.57;39.17;;;5.70;99.90;;;;;;10432277;28;20283;-81
2024/01/30 21:35:45;;;;;;;70.77;40.43;;;5.70;99.90;;;;;;10391649;28;20235;-82
2024/01/30 21:40:48;;;;;;;70.73;37.90;;;6.00;99.90;;;;;;10405768;28;20746;-80
2024/01/30 21:45:50;;;;;;;67.83;38.97;;;5.80;99.90;;;;;;10388674;28;20290;-80
2024/01/30 21:50:53;;;;;;;68.77;40.30;;;5.30;99.90;;;;;;10417196;28;20232;-80
2024/01/30 21:55:55;;;;;;;69.43;41.17;;;5.50;99.90;;;;;;10410890;28;20293;-80
2024/01/30 22:00:58;;;;;;;74.93;42.53;;;5.20;99.90;;;;;;10431620;28;20298;-81
2024/01/30 22:06:00;;;;;;;76.37;42.80;;;5.20;99.90;;;;;;10411608;28;20255;-81
2024/01/30 22:11:06;;;;;;;77.10;43.47;;;5.20;99.90;;;;;;10426003;28;20619;-82
2024/01/30 22:16:09;;;;;;;73.60;42.00;;;5.20;99.90;;;;;;10406953;28;20676;-81
2024/01/30 22:21:15;;;;;;;80.73;42.80;;;5.20;99.90;;;;;;10436981;28;20681;-81
2024/01/30 22:26:18;;;;;;;68.10;39.57;;;5.30;99.90;;;;;;10432946;28;20259;-80
2024/01/30 22:31:21;;;;;;;68.13;37.80;;;5.20;99.90;;;;;;10411807;28;20234;-81
2024/01/30 22:36:24;;;;;;;60.50;37.67;;;5.50;99.90;;;;;;10411222;28;20231;-81
2024/01/30 22:41:28;;;;;;;68.50;40.17;;;5.30;99.90;;;;;;10412156;28;20243;-81
2024/01/30 22:46:31;;;;;;;63.97;37.30;;;5.90;99.90;;;;;;10412671;28;20635;-81
2024/01/30 22:51:33;;;;;;;58.60;33.87;;;6.10;99.90;;;;;;10393572;28;20231;-82
2024/01/30 22:56:36;;;;;;;72.80;39.50;;;6.30;99.90;;;;;;10410862;28;20259;-82
2024/01/30 23:01:39;;;;;;;55.87;35.43;;;6.00;99.90;;;;;;10398646;28;20231;-82
2024/01/30 23:06:42;;;;;;;65.57;37.83;;;6.10;99.90;;;;;;10409783;28;20258;-82
2024/01/30 23:11:48;;;;;;;60.63;34.20;;;6.20;99.90;;;;;;10410705;28;20232;-82
2024/01/30 23:16:51;;;;;;;84.37;50.47;;;6.60;99.90;;;;;;10421530;28;20289;-82
2024/01/30 23:21:53;;;;;;;70.53;40.20;;;7.20;99.90;;;;;;10432307;28;20242;-82
2024/01/30 23:26:56;;;;;;;79.27;45.23;;;7.50;99.90;;;;;;10434507;28;20255;-82
2024/01/30 23:31:58;;;;;;;82.67;46.43;;;7.90;99.90;;;;;;10431207;28;20223;-82
2024/01/30 23:37:02;;;;;;;77.83;41.83;;;;;;;;;;10428653;28;20285;-82
2024/01/30 23:42:04;;;;;;;52.13;30.87;;;9.50;99.90;;;;;;10441202;28;20230;-82
2024/01/30 23:47:07;;;;;;;63.00;40.93;;;9.50;99.90;;;;;;10441522;28;20709;-82
2024/01/30 23:52:09;;;;;;;62.47;37.90;;;10.10;99.90;;;;;;10413003;28;20278;-82
2024/01/30 23:57:12;;;;;;;52.00;32.73;;;11.10;99.90;;;;;;10408821;28;20234;-82
